sensor_id;sensor_type;location;lat;lon;timestamp;P1;durP1;ratioP1;P2;durP2;ratioP2
54919;SDS011;63804;53.120;8.764;2024-02-26T00:01:12;10.60;;;6.97;;
54919;SDS011;63804;53.120;8.764;2024-02-26T00:03:39;10.63;;;7.03;;
54919;SDS011;63804;53.120;8.764;2024-02-26T00:06:09;11.27;;;7.25;;
54919;SDS011;63804;53.120;8.764;2024-02-26T00:08:36;10.60;;;6.72;;
54919;SDS011;63804;53.120;8.764;2024-02-26T00:11:03;10.52;;;6.93;;
54919;SDS011;63804;53.120;8.764;2024-02-26T00:13:31;10.90;;;7.22;;
54919;SDS011;63804;53.120;8.764;2024-02-26T00:15:58;10.70;;;6.72;;
54919;SDS011;63804;53.120;8.764;2024-02-26T00:18:25;11.52;;;7.15;;
54919;SDS011;63804;53.120;8.764;2024-02-26T00:20:53;10.75;;;7.22;;
54919;SDS011;63804;53.120;8.764;2024-02-26T00:23:20;10.40;;;7.03;;
54919;SDS011;63804;53.120;8.764;2024-02-26T00:25:48;12.52;;;7.82;;
54919;SDS011;63804;53.120;8.764;2024-02-26T00:28:16;11.65;;;7.35;;
54919;SDS011;63804;53.120;8.764;2024-02-26T00:30:44;10.32;;;7.43;;
54919;SDS011;63804;53.120;8.764;2024-02-26T00:33:11;12.45;;;7.40;;
54919;SDS011;63804;53.120;8.764;2024-02-26T00:35:38;12.05;;;7.13;;
54919;SDS011;63804;53.120;8.764;2024-02-26T00:38:05;12.15;;;8.00;;
54919;SDS011;63804;53.120;8.764;2024-02-26T00:40:33;10.98;;;7.13;;
54919;SDS011;63804;53.120;8.764;2024-02-26T00:43:01;12.55;;;7.70;;
54919;SDS011;63804;53.120;8.764;2024-02-26T00:45:28;11.95;;;7.22;;
54919;SDS011;63804;53.120;8.764;2024-02-26T00:47:55;10.95;;;6.70;;
54919;SDS011;63804;53.120;8.764;2024-02-26T00:50:22;10.95;;;7.13;;
54919;SDS011;63804;53.120;8.764;2024-02-26T00:52:52;10.88;;;6.70;;
54919;SDS011;63804;53.120;8.764;2024-02-26T00:55:19;12.35;;;7.30;;
54919;SDS011;63804;53.120;8.764;2024-02-26T00:57:47;10.35;;;7.03;;
54919;SDS011;63804;53.120;8.764;2024-02-26T01:00:14;10.80;;;7.07;;
54919;SDS011;63804;53.120;8.764;2024-02-26T01:02:42;10.68;;;7.20;;
54919;SDS011;63804;53.120;8.764;2024-02-26T01:05:09;11.00;;;7.07;;
54919;SDS011;63804;53.120;8.764;2024-02-26T01:07:36;10.82;;;7.25;;
54919;SDS011;63804;53.120;8.764;2024-02-26T01:10:04;10.73;;;7.22;;
54919;SDS011;63804;53.120;8.764;2024-02-26T01:12:32;11.90;;;7.00;;
54919;SDS011;63804;53.120;8.764;2024-02-26T01:15:01;11.10;;;7.00;;
54919;SDS011;63804;53.120;8.764;2024-02-26T01:17:30;10.13;;;6.90;;
54919;SDS011;63804;53.120;8.764;2024-02-26T01:19:57;10.02;;;6.13;;
54919;SDS011;63804;53.120;8.764;2024-02-26T01:22:24;10.70;;;6.35;;
54919;SDS011;63804;53.120;8.764;2024-02-26T01:24:52;9.38;;;6.38;;
54919;SDS011;63804;53.120;8.764;2024-02-26T01:27:19;10.95;;;6.63;;
54919;SDS011;63804;53.120;8.764;2024-02-26T01:29:46;10.93;;;6.20;;
54919;SDS011;63804;53.120;8.764;2024-02-26T01:32:14;9.88;;;6.22;;
54919;SDS011;63804;53.120;8.764;2024-02-26T01:34:41;10.55;;;6.55;;
54919;SDS011;63804;53.120;8.764;2024-02-26T01:37:08;10.75;;;6.45;;
54919;SDS011;63804;53.120;8.764;2024-02-26T01:39:35;9.30;;;5.82;;
54919;SDS011;63804;53.120;8.764;2024-02-26T01:42:03;10.52;;;6.40;;
54919;SDS011;63804;53.120;8.764;2024-02-26T01:44:30;10.75;;;6.65;;
54919;SDS011;63804;53.120;8.764;2024-02-26T01:47:01;10.68;;;6.82;;
54919;SDS011;63804;53.120;8.764;2024-02-26T01:49:29;11.60;;;6.40;;
54919;SDS011;63804;53.120;8.764;2024-02-26T01:51:57;10.50;;;6.55;;
54919;SDS011;63804;53.120;8.764;2024-02-26T01:54:25;10.30;;;6.32;;
54919;SDS011;63804;53.120;8.764;2024-02-26T01:56:53;9.90;;;5.97;;
54919;SDS011;63804;53.120;8.764;2024-02-26T01:59:20;10.85;;;6.60;;
54919;SDS011;63804;53.120;8.764;2024-02-26T02:01:50;10.85;;;6.40;;
54919;SDS011;63804;53.120;8.764;2024-02-26T02:04:21;11.55;;;6.82;;
54919;SDS011;63804;53.120;8.764;2024-02-26T02:06:50;10.25;;;6.93;;
54919;SDS011;63804;53.120;8.764;2024-02-26T02:09:19;10.23;;;6.35;;
54919;SDS011;63804;53.120;8.764;2024-02-26T02:11:47;11.77;;;7.10;;
54919;SDS011;63804;53.120;8.764;2024-02-26T02:14:15;10.35;;;6.38;;
54919;SDS011;63804;53.120;8.764;2024-02-26T02:16:42;11.20;;;6.55;;
54919;SDS011;63804;53.120;8.764;2024-02-26T02:19:10;11.73;;;7.18;;
54919;SDS011;63804;53.120;8.764;2024-02-26T02:21:37;10.98;;;6.82;;
54919;SDS011;63804;53.120;8.764;2024-02-26T02:24:04;12.27;;;7.05;;
54919;SDS011;63804;53.120;8.764;2024-02-26T02:26:31;11.95;;;7.00;;
54919;SDS011;63804;53.120;8.764;2024-02-26T02:28:59;12.25;;;6.72;;
54919;SDS011;63804;53.120;8.764;2024-02-26T02:31:27;10.77;;;6.63;;
54919;SDS011;63804;53.120;8.764;2024-02-26T02:33:54;11.98;;;6.93;;
54919;SDS011;63804;53.120;8.764;2024-02-26T02:36:21;10.95;;;6.57;;
54919;SDS011;63804;53.120;8.764;2024-02-26T02:38:51;12.23;;;7.15;;
54919;SDS011;63804;53.120;8.764;2024-02-26T02:41:19;12.27;;;7.32;;
54919;SDS011;63804;53.120;8.764;2024-02-26T02:43:46;11.40;;;6.88;;
54919;SDS011;63804;53.120;8.764;2024-02-26T02:46:14;12.13;;;7.32;;
54919;SDS011;63804;53.120;8.764;2024-02-26T02:48:41;11.60;;;7.50;;
54919;SDS011;63804;53.120;8.764;2024-02-26T02:51:09;12.20;;;7.30;;
54919;SDS011;63804;53.120;8.764;2024-02-26T02:53:36;12.68;;;7.47;;
54919;SDS011;63804;53.120;8.764;2024-02-26T02:56:06;13.13;;;7.50;;
54919;SDS011;63804;53.120;8.764;2024-02-26T02:58:33;12.32;;;7.38;;
54919;SDS011;63804;53.120;8.764;2024-02-26T03:01:00;12.60;;;7.60;;
54919;SDS011;63804;53.120;8.764;2024-02-26T03:03:28;11.95;;;7.78;;
54919;SDS011;63804;53.120;8.764;2024-02-26T03:05:56;12.45;;;7.78;;
54919;SDS011;63804;53.120;8.764;2024-02-26T03:08:24;12.30;;;7.35;;
54919;SDS011;63804;53.120;8.764;2024-02-26T03:10:52;10.93;;;6.72;;
54919;SDS011;63804;53.120;8.764;2024-02-26T03:13:20;11.38;;;7.60;;
54919;SDS011;63804;53.120;8.764;2024-02-26T03:15:47;11.88;;;7.35;;
54919;SDS011;63804;53.120;8.764;2024-02-26T03:18:14;11.75;;;7.18;;
54919;SDS011;63804;53.120;8.764;2024-02-26T03:20:42;12.40;;;7.07;;
54919;SDS011;63804;53.120;8.764;2024-02-26T03:23:09;11.40;;;6.95;;
54919;SDS011;63804;53.120;8.764;2024-02-26T03:25:39;11.73;;;7.45;;
54919;SDS011;63804;53.120;8.764;2024-02-26T03:28:07;11.57;;;6.97;;
54919;SDS011;63804;53.120;8.764;2024-02-26T03:30:34;11.23;;;7.00;;
54919;SDS011;63804;53.120;8.764;2024-02-26T03:33:01;11.68;;;7.03;;
54919;SDS011;63804;53.120;8.764;2024-02-26T03:35:29;11.80;;;7.38;;
54919;SDS011;63804;53.120;8.764;2024-02-26T03:37:57;11.45;;;7.00;;
54919;SDS011;63804;53.120;8.764;2024-02-26T03:40:24;11.00;;;6.72;;
54919;SDS011;63804;53.120;8.764;2024-02-26T03:42:51;11.45;;;7.05;;
54919;SDS011;63804;53.120;8.764;2024-02-26T03:45:20;11.30;;;6.93;;
54919;SDS011;63804;53.120;8.764;2024-02-26T03:47:48;10.63;;;6.30;;
54919;SDS011;63804;53.120;8.764;2024-02-26T03:50:15;11.35;;;6.55;;
54919;SDS011;63804;53.120;8.764;2024-02-26T03:52:43;12.55;;;7.28;;
54919;SDS011;63804;53.120;8.764;2024-02-26T03:55:10;11.70;;;6.85;;
54919;SDS011;63804;53.120;8.764;2024-02-26T03:57:37;11.20;;;7.10;;
54919;SDS011;63804;53.120;8.764;2024-02-26T04:00:05;11.93;;;7.05;;
54919;SDS011;63804;53.120;8.764;2024-02-26T04:02:33;12.25;;;7.03;;
54919;SDS011;63804;53.120;8.764;2024-02-26T04:05:00;11.70;;;7.10;;
54919;SDS011;63804;53.120;8.764;2024-02-26T04:07:27;10.60;;;6.57;;
54919;SDS011;63804;53.120;8.764;2024-02-26T04:09:55;11.25;;;6.43;;
54919;SDS011;63804;53.120;8.764;2024-02-26T04:12:22;11.50;;;6.72;;
54919;SDS011;63804;53.120;8.764;2024-02-26T04:14:49;10.63;;;5.95;;
54919;SDS011;63804;53.120;8.764;2024-02-26T04:17:16;11.57;;;6.88;;
54919;SDS011;63804;53.120;8.764;2024-02-26T04:19:43;11.25;;;6.65;;
54919;SDS011;63804;53.120;8.764;2024-02-26T04:22:11;11.00;;;6.90;;
54919;SDS011;63804;53.120;8.764;2024-02-26T04:24:38;11.45;;;6.60;;
54919;SDS011;63804;53.120;8.764;2024-02-26T04:27:05;10.52;;;6.32;;
54919;SDS011;63804;53.120;8.764;2024-02-26T04:29:35;11.65;;;6.80;;
54919;SDS011;63804;53.120;8.764;2024-02-26T04:32:03;10.07;;;6.00;;
54919;SDS011;63804;53.120;8.764;2024-02-26T04:34:31;10.18;;;6.47;;
54919;SDS011;63804;53.120;8.764;2024-02-26T04:36:58;10.38;;;6.43;;
54919;SDS011;63804;53.120;8.764;2024-02-26T04:39:25;10.77;;;6.95;;
54919;SDS011;63804;53.120;8.764;2024-02-26T04:41:53;10.35;;;6.25;;
54919;SDS011;63804;53.120;8.764;2024-02-26T04:44:20;10.38;;;6.05;;
54919;SDS011;63804;53.120;8.764;2024-02-26T04:46:47;11.32;;;6.68;;
54919;SDS011;63804;53.120;8.764;2024-02-26T04:49:14;10.27;;;6.22;;
54919;SDS011;63804;53.120;8.764;2024-02-26T04:51:42;9.90;;;6.03;;
54919;SDS011;63804;53.120;8.764;2024-02-26T04:54:12;9.93;;;5.80;;
54919;SDS011;63804;53.120;8.764;2024-02-26T04:56:39;11.10;;;6.88;;
54919;SDS011;63804;53.120;8.764;2024-02-26T04:59:06;10.52;;;6.40;;
54919;SDS011;63804;53.120;8.764;2024-02-26T05:01:34;10.90;;;6.80;;
54919;SDS011;63804;53.120;8.764;2024-02-26T05:04:01;11.00;;;6.80;;
54919;SDS011;63804;53.120;8.764;2024-02-26T05:06:30;10.77;;;6.50;;
54919;SDS011;63804;53.120;8.764;2024-02-26T05:08:57;10.60;;;6.43;;
54919;SDS011;63804;53.120;8.764;2024-02-26T05:11:27;11.57;;;7.03;;
54919;SDS011;63804;53.120;8.764;2024-02-26T05:13:54;12.00;;;6.75;;
54919;SDS011;63804;53.120;8.764;2024-02-26T05:16:21;12.10;;;7.72;;
54919;SDS011;63804;53.120;8.764;2024-02-26T05:18:51;13.45;;;7.97;;
54919;SDS011;63804;53.120;8.764;2024-02-26T05:21:18;14.80;;;8.13;;
54919;SDS011;63804;53.120;8.764;2024-02-26T05:23:46;15.13;;;9.00;;
54919;SDS011;63804;53.120;8.764;2024-02-26T05:26:20;14.10;;;8.63;;
54919;SDS011;63804;53.120;8.764;2024-02-26T05:28:48;15.02;;;9.00;;
54919;SDS011;63804;53.120;8.764;2024-02-26T05:31:16;14.80;;;9.02;;
54919;SDS011;63804;53.120;8.764;2024-02-26T05:33:43;16.38;;;9.32;;
54919;SDS011;63804;53.120;8.764;2024-02-26T05:36:17;15.40;;;9.32;;
54919;SDS011;63804;53.120;8.764;2024-02-26T05:38:49;17.52;;;10.55;;
54919;SDS011;63804;53.120;8.764;2024-02-26T05:41:16;16.77;;;10.13;;
54919;SDS011;63804;53.120;8.764;2024-02-26T05:43:50;19.27;;;10.52;;
54919;SDS011;63804;53.120;8.764;2024-02-26T05:46:17;17.20;;;9.60;;
54919;SDS011;63804;53.120;8.764;2024-02-26T05:48:51;15.95;;;10.02;;
54919;SDS011;63804;53.120;8.764;2024-02-26T05:51:19;18.30;;;10.18;;
54919;SDS011;63804;53.120;8.764;2024-02-26T05:53:47;16.38;;;10.23;;
54919;SDS011;63804;53.120;8.764;2024-02-26T05:56:22;25.10;;;11.48;;
54919;SDS011;63804;53.120;8.764;2024-02-26T05:58:52;23.88;;;10.98;;
54919;SDS011;63804;53.120;8.764;2024-02-26T06:01:19;26.95;;;10.70;;
54919;SDS011;63804;53.120;8.764;2024-02-26T06:03:47;17.25;;;9.75;;
54919;SDS011;63804;53.120;8.764;2024-02-26T06:06:14;16.38;;;9.68;;
54919;SDS011;63804;53.120;8.764;2024-02-26T06:08:43;16.48;;;10.18;;
54919;SDS011;63804;53.120;8.764;2024-02-26T06:11:10;18.77;;;10.63;;
54919;SDS011;63804;53.120;8.764;2024-02-26T06:13:38;17.40;;;9.85;;
54919;SDS011;63804;53.120;8.764;2024-02-26T06:16:05;17.58;;;10.25;;
54919;SDS011;63804;53.120;8.764;2024-02-26T06:18:32;19.17;;;10.50;;
54919;SDS011;63804;53.120;8.764;2024-02-26T06:20:59;21.73;;;10.68;;
54919;SDS011;63804;53.120;8.764;2024-02-26T06:23:30;22.70;;;10.73;;
54919;SDS011;63804;53.120;8.764;2024-02-26T06:25:57;20.95;;;10.57;;
54919;SDS011;63804;53.120;8.764;2024-02-26T06:28:24;22.10;;;11.02;;
54919;SDS011;63804;53.120;8.764;2024-02-26T06:30:52;20.60;;;11.07;;
54919;SDS011;63804;53.120;8.764;2024-02-26T06:33:19;20.65;;;11.15;;
54919;SDS011;63804;53.120;8.764;2024-02-26T06:35:46;22.00;;;11.38;;
54919;SDS011;63804;53.120;8.764;2024-02-26T06:38:14;19.95;;;11.75;;
54919;SDS011;63804;53.120;8.764;2024-02-26T06:40:42;21.13;;;12.50;;
54919;SDS011;63804;53.120;8.764;2024-02-26T06:43:09;20.17;;;12.35;;
54919;SDS011;63804;53.120;8.764;2024-02-26T06:45:36;20.95;;;11.63;;
54919;SDS011;63804;53.120;8.764;2024-02-26T06:48:03;20.65;;;12.45;;
54919;SDS011;63804;53.120;8.764;2024-02-26T06:50:31;21.05;;;12.75;;
54919;SDS011;63804;53.120;8.764;2024-02-26T06:52:58;20.83;;;11.70;;
54919;SDS011;63804;53.120;8.764;2024-02-26T06:55:25;20.63;;;12.00;;
54919;SDS011;63804;53.120;8.764;2024-02-26T06:57:52;20.52;;;12.30;;
54919;SDS011;63804;53.120;8.764;2024-02-26T07:00:19;20.75;;;11.88;;
54919;SDS011;63804;53.120;8.764;2024-02-26T07:02:47;20.05;;;11.98;;
54919;SDS011;63804;53.120;8.764;2024-02-26T07:05:16;18.73;;;11.38;;
54919;SDS011;63804;53.120;8.764;2024-02-26T07:07:44;18.45;;;11.60;;
54919;SDS011;63804;53.120;8.764;2024-02-26T07:10:11;18.77;;;11.20;;
54919;SDS011;63804;53.120;8.764;2024-02-26T07:12:39;18.50;;;11.18;;
54919;SDS011;63804;53.120;8.764;2024-02-26T07:15:09;20.20;;;12.38;;
54919;SDS011;63804;53.120;8.764;2024-02-26T07:17:36;17.90;;;10.98;;
54919;SDS011;63804;53.120;8.764;2024-02-26T07:20:03;18.15;;;11.20;;
54919;SDS011;63804;53.120;8.764;2024-02-26T07:22:36;18.10;;;11.32;;
54919;SDS011;63804;53.120;8.764;2024-02-26T07:25:03;19.50;;;10.23;;
54919;SDS011;63804;53.120;8.764;2024-02-26T07:27:30;18.50;;;10.70;;
54919;SDS011;63804;53.120;8.764;2024-02-26T07:29:57;18.45;;;10.57;;
54919;SDS011;63804;53.120;8.764;2024-02-26T07:32:24;18.05;;;10.85;;
54919;SDS011;63804;53.120;8.764;2024-02-26T07:34:53;15.77;;;9.73;;
54919;SDS011;63804;53.120;8.764;2024-02-26T07:37:20;18.05;;;10.25;;
54919;SDS011;63804;53.120;8.764;2024-02-26T07:39:47;18.38;;;10.00;;
54919;SDS011;63804;53.120;8.764;2024-02-26T07:42:14;16.45;;;9.82;;
54919;SDS011;63804;53.120;8.764;2024-02-26T07:44:41;15.90;;;9.60;;
54919;SDS011;63804;53.120;8.764;2024-02-26T07:47:09;19.20;;;9.82;;
54919;SDS011;63804;53.120;8.764;2024-02-26T07:49:37;15.88;;;9.50;;
54919;SDS011;63804;53.120;8.764;2024-02-26T07:52:05;16.45;;;9.43;;
54919;SDS011;63804;53.120;8.764;2024-02-26T07:54:33;14.63;;;8.68;;
54919;SDS011;63804;53.120;8.764;2024-02-26T07:57:00;16.67;;;9.20;;
54919;SDS011;63804;53.120;8.764;2024-02-26T07:59:28;14.95;;;8.65;;
54919;SDS011;63804;53.120;8.764;2024-02-26T08:01:55;15.93;;;8.80;;
54919;SDS011;63804;53.120;8.764;2024-02-26T08:04:24;15.05;;;9.32;;
54919;SDS011;63804;53.120;8.764;2024-02-26T08:06:53;15.40;;;9.10;;
54919;SDS011;63804;53.120;8.764;2024-02-26T08:09:21;15.07;;;9.10;;
54919;SDS011;63804;53.120;8.764;2024-02-26T08:11:49;13.27;;;8.10;;
54919;SDS011;63804;53.120;8.764;2024-02-26T08:14:16;16.08;;;9.40;;
54919;SDS011;63804;53.120;8.764;2024-02-26T08:16:43;15.35;;;8.63;;
54919;SDS011;63804;53.120;8.764;2024-02-26T08:19:10;15.50;;;8.98;;
54919;SDS011;63804;53.120;8.764;2024-02-26T08:21:41;16.08;;;9.20;;
54919;SDS011;63804;53.120;8.764;2024-02-26T08:24:08;14.38;;;8.38;;
54919;SDS011;63804;53.120;8.764;2024-02-26T08:26:36;13.32;;;8.43;;
54919;SDS011;63804;53.120;8.764;2024-02-26T08:29:03;14.18;;;8.45;;
54919;SDS011;63804;53.120;8.764;2024-02-26T08:31:32;14.25;;;8.40;;
54919;SDS011;63804;53.120;8.764;2024-02-26T08:34:00;14.32;;;8.40;;
54919;SDS011;63804;53.120;8.764;2024-02-26T08:36:28;12.98;;;8.32;;
54919;SDS011;63804;53.120;8.764;2024-02-26T08:38:55;13.75;;;7.82;;
54919;SDS011;63804;53.120;8.764;2024-02-26T08:41:22;14.27;;;8.40;;
54919;SDS011;63804;53.120;8.764;2024-02-26T08:43:50;13.27;;;8.23;;
54919;SDS011;63804;53.120;8.764;2024-02-26T08:46:17;14.52;;;8.05;;
54919;SDS011;63804;53.120;8.764;2024-02-26T08:48:44;15.73;;;8.35;;
54919;SDS011;63804;53.120;8.764;2024-02-26T08:51:12;15.88;;;8.95;;
54919;SDS011;63804;53.120;8.764;2024-02-26T08:53:42;13.88;;;8.43;;
54919;SDS011;63804;53.120;8.764;2024-02-26T08:56:13;13.52;;;8.27;;
54919;SDS011;63804;53.120;8.764;2024-02-26T08:58:45;15.82;;;8.73;;
54919;SDS011;63804;53.120;8.764;2024-02-26T09:01:15;15.45;;;7.93;;
54919;SDS011;63804;53.120;8.764;2024-02-26T09:03:43;15.88;;;8.90;;
54919;SDS011;63804;53.120;8.764;2024-02-26T09:06:10;16.00;;;8.57;;
54919;SDS011;63804;53.120;8.764;2024-02-26T09:08:38;13.75;;;7.95;;
54919;SDS011;63804;53.120;8.764;2024-02-26T09:11:05;13.65;;;8.38;;
54919;SDS011;63804;53.120;8.764;2024-02-26T09:13:33;14.98;;;8.60;;
54919;SDS011;63804;53.120;8.764;2024-02-26T09:16:00;13.65;;;8.15;;
54919;SDS011;63804;53.120;8.764;2024-02-26T09:18:27;14.85;;;8.55;;
54919;SDS011;63804;53.120;8.764;2024-02-26T09:20:55;13.75;;;8.07;;
54919;SDS011;63804;53.120;8.764;2024-02-26T09:23:23;14.98;;;9.20;;
54919;SDS011;63804;53.120;8.764;2024-02-26T09:25:50;14.25;;;8.45;;
54919;SDS011;63804;53.120;8.764;2024-02-26T09:28:17;14.85;;;8.27;;
54919;SDS011;63804;53.120;8.764;2024-02-26T09:30:44;14.13;;;8.60;;
54919;SDS011;63804;53.120;8.764;2024-02-26T09:33:13;15.13;;;8.43;;
54919;SDS011;63804;53.120;8.764;2024-02-26T09:35:41;14.07;;;8.90;;
54919;SDS011;63804;53.120;8.764;2024-02-26T09:38:08;15.95;;;9.32;;
54919;SDS011;63804;53.120;8.764;2024-02-26T09:40:35;15.43;;;9.05;;
54919;SDS011;63804;53.120;8.764;2024-02-26T09:43:04;15.82;;;9.73;;
54919;SDS011;63804;53.120;8.764;2024-02-26T09:45:32;16.05;;;9.00;;
54919;SDS011;63804;53.120;8.764;2024-02-26T09:48:00;15.00;;;8.73;;
54919;SDS011;63804;53.120;8.764;2024-02-26T09:50:31;17.08;;;9.57;;
54919;SDS011;63804;53.120;8.764;2024-02-26T09:52:58;15.63;;;9.20;;
54919;SDS011;63804;53.120;8.764;2024-02-26T09:55:29;16.42;;;9.75;;
54919;SDS011;63804;53.120;8.764;2024-02-26T09:57:56;15.15;;;8.80;;
54919;SDS011;63804;53.120;8.764;2024-02-26T10:00:25;14.95;;;9.30;;
54919;SDS011;63804;53.120;8.764;2024-02-26T10:03:05;15.70;;;9.15;;
54919;SDS011;63804;53.120;8.764;2024-02-26T10:05:34;14.65;;;9.23;;
54919;SDS011;63804;53.120;8.764;2024-02-26T10:08:02;15.63;;;9.25;;
54919;SDS011;63804;53.120;8.764;2024-02-26T10:10:31;14.25;;;8.77;;
54919;SDS011;63804;53.120;8.764;2024-02-26T10:12:59;14.45;;;8.68;;
54919;SDS011;63804;53.120;8.764;2024-02-26T10:15:28;16.30;;;9.70;;
54919;SDS011;63804;53.120;8.764;2024-02-26T10:17:55;14.00;;;8.82;;
54919;SDS011;63804;53.120;8.764;2024-02-26T10:20:23;13.73;;;8.75;;
54919;SDS011;63804;53.120;8.764;2024-02-26T10:22:51;16.15;;;9.38;;
54919;SDS011;63804;53.120;8.764;2024-02-26T10:25:19;15.52;;;9.35;;
54919;SDS011;63804;53.120;8.764;2024-02-26T10:27:46;16.48;;;9.80;;
54919;SDS011;63804;53.120;8.764;2024-02-26T10:30:18;16.90;;;9.40;;
54919;SDS011;63804;53.120;8.764;2024-02-26T10:32:49;14.10;;;8.70;;
54919;SDS011;63804;53.120;8.764;2024-02-26T10:35:17;14.25;;;8.95;;
54919;SDS011;63804;53.120;8.764;2024-02-26T10:37:47;15.70;;;9.10;;
54919;SDS011;63804;53.120;8.764;2024-02-26T10:40:16;15.32;;;9.30;;
54919;SDS011;63804;53.120;8.764;2024-02-26T10:42:43;15.65;;;9.77;;
54919;SDS011;63804;53.120;8.764;2024-02-26T10:45:12;14.32;;;8.82;;
54919;SDS011;63804;53.120;8.764;2024-02-26T10:47:40;15.50;;;9.38;;
54919;SDS011;63804;53.120;8.764;2024-02-26T10:50:09;16.30;;;9.77;;
54919;SDS011;63804;53.120;8.764;2024-02-26T10:52:36;14.60;;;9.27;;
54919;SDS011;63804;53.120;8.764;2024-02-26T10:55:04;15.00;;;9.77;;
54919;SDS011;63804;53.120;8.764;2024-02-26T10:57:35;15.85;;;9.65;;
54919;SDS011;63804;53.120;8.764;2024-02-26T11:00:08;15.00;;;9.70;;
54919;SDS011;63804;53.120;8.764;2024-02-26T11:02:40;17.13;;;9.70;;
54919;SDS011;63804;53.120;8.764;2024-02-26T11:05:08;14.63;;;9.07;;
54919;SDS011;63804;53.120;8.764;2024-02-26T11:07:35;17.77;;;9.55;;
54919;SDS011;63804;53.120;8.764;2024-02-26T11:10:04;16.45;;;9.48;;
54919;SDS011;63804;53.120;8.764;2024-02-26T11:12:35;15.15;;;9.15;;
54919;SDS011;63804;53.120;8.764;2024-02-26T11:15:04;15.10;;;8.90;;
54919;SDS011;63804;53.120;8.764;2024-02-26T11:17:33;15.48;;;9.20;;
54919;SDS011;63804;53.120;8.764;2024-02-26T11:20:02;14.88;;;8.95;;
54919;SDS011;63804;53.120;8.764;2024-02-26T11:22:29;15.50;;;8.88;;
54919;SDS011;63804;53.120;8.764;2024-02-26T11:24:57;14.75;;;8.93;;
54919;SDS011;63804;53.120;8.764;2024-02-26T11:27:30;15.35;;;8.77;;
54919;SDS011;63804;53.120;8.764;2024-02-26T11:30:02;15.30;;;9.20;;
54919;SDS011;63804;53.120;8.764;2024-02-26T11:32:32;14.40;;;8.70;;
54919;SDS011;63804;53.120;8.764;2024-02-26T11:35:02;14.32;;;8.65;;
54919;SDS011;63804;53.120;8.764;2024-02-26T11:37:32;13.57;;;8.60;;
54919;SDS011;63804;53.120;8.764;2024-02-26T11:40:05;14.63;;;8.85;;
54919;SDS011;63804;53.120;8.764;2024-02-26T11:42:43;14.73;;;8.73;;
54919;SDS011;63804;53.120;8.764;2024-02-26T11:47:57;14.00;;;8.18;;
54919;SDS011;63804;53.120;8.764;2024-02-26T11:50:34;14.68;;;8.55;;
54919;SDS011;63804;53.120;8.764;2024-02-26T11:58:44;14.65;;;8.50;;
54919;SDS011;63804;53.120;8.764;2024-02-26T12:04:05;13.38;;;8.32;;
54919;SDS011;63804;53.120;8.764;2024-02-26T12:07:07;14.75;;;8.63;;
54919;SDS011;63804;53.120;8.764;2024-02-26T12:12:06;13.55;;;8.30;;
54919;SDS011;63804;53.120;8.764;2024-02-26T12:14:51;15.95;;;8.68;;
54919;SDS011;63804;53.120;8.764;2024-02-26T12:17:22;14.43;;;8.27;;
54919;SDS011;63804;53.120;8.764;2024-02-26T12:19:53;15.50;;;8.52;;
54919;SDS011;63804;53.120;8.764;2024-02-26T12:22:22;14.23;;;8.88;;
54919;SDS011;63804;53.120;8.764;2024-02-26T12:25:00;13.63;;;8.25;;
54919;SDS011;63804;53.120;8.764;2024-02-26T12:27:29;14.52;;;8.43;;
54919;SDS011;63804;53.120;8.764;2024-02-26T12:29:57;14.40;;;8.02;;
54919;SDS011;63804;53.120;8.764;2024-02-26T12:32:24;15.35;;;8.57;;
54919;SDS011;63804;53.120;8.764;2024-02-26T12:34:51;13.70;;;7.78;;
54919;SDS011;63804;53.120;8.764;2024-02-26T12:37:19;13.45;;;7.80;;
54919;SDS011;63804;53.120;8.764;2024-02-26T12:39:46;13.27;;;7.57;;
54919;SDS011;63804;53.120;8.764;2024-02-26T12:42:13;12.68;;;7.72;;
54919;SDS011;63804;53.120;8.764;2024-02-26T12:44:41;12.10;;;7.55;;
54919;SDS011;63804;53.120;8.764;2024-02-26T12:47:09;13.70;;;7.93;;
54919;SDS011;63804;53.120;8.764;2024-02-26T12:49:37;13.90;;;7.88;;
54919;SDS011;63804;53.120;8.764;2024-02-26T12:52:05;12.95;;;7.40;;
54919;SDS011;63804;53.120;8.764;2024-02-26T12:54:32;12.13;;;7.07;;
54919;SDS011;63804;53.120;8.764;2024-02-26T12:57:01;12.63;;;7.05;;
54919;SDS011;63804;53.120;8.764;2024-02-26T12:59:31;12.10;;;6.60;;
54919;SDS011;63804;53.120;8.764;2024-02-26T13:01:58;11.80;;;6.53;;
54919;SDS011;63804;53.120;8.764;2024-02-26T13:04:26;12.32;;;7.15;;
54919;SDS011;63804;53.120;8.764;2024-02-26T13:06:59;11.07;;;6.65;;
54919;SDS011;63804;53.120;8.764;2024-02-26T13:09:33;13.70;;;7.03;;
54919;SDS011;63804;53.120;8.764;2024-02-26T13:12:06;11.70;;;6.82;;
54919;SDS011;63804;53.120;8.764;2024-02-26T13:14:34;11.07;;;6.30;;
54919;SDS011;63804;53.120;8.764;2024-02-26T13:17:02;11.25;;;6.50;;
54919;SDS011;63804;53.120;8.764;2024-02-26T13:19:30;11.20;;;6.80;;
54919;SDS011;63804;53.120;8.764;2024-02-26T13:22:07;11.75;;;6.60;;
54919;SDS011;63804;53.120;8.764;2024-02-26T13:24:34;11.90;;;6.50;;
54919;SDS011;63804;53.120;8.764;2024-02-26T13:27:02;10.32;;;5.85;;
54919;SDS011;63804;53.120;8.764;2024-02-26T13:29:32;10.45;;;6.55;;
54919;SDS011;63804;53.120;8.764;2024-02-26T13:31:59;11.77;;;6.85;;
54919;SDS011;63804;53.120;8.764;2024-02-26T13:34:27;11.65;;;6.95;;
54919;SDS011;63804;53.120;8.764;2024-02-26T13:36:57;11.48;;;6.68;;
54919;SDS011;63804;53.120;8.764;2024-02-26T13:39:25;11.23;;;6.57;;
54919;SDS011;63804;53.120;8.764;2024-02-26T13:41:54;11.77;;;6.50;;
54919;SDS011;63804;53.120;8.764;2024-02-26T13:44:21;11.13;;;6.30;;
54919;SDS011;63804;53.120;8.764;2024-02-26T13:46:49;10.95;;;6.20;;
54919;SDS011;63804;53.120;8.764;2024-02-26T13:49:16;10.05;;;6.40;;
54919;SDS011;63804;53.120;8.764;2024-02-26T13:51:43;10.98;;;6.32;;
54919;SDS011;63804;53.120;8.764;2024-02-26T13:54:11;10.90;;;5.70;;
54919;SDS011;63804;53.120;8.764;2024-02-26T13:56:38;11.55;;;6.18;;
54919;SDS011;63804;53.120;8.764;2024-02-26T13:59:05;11.55;;;6.40;;
54919;SDS011;63804;53.120;8.764;2024-02-26T14:01:33;11.85;;;6.53;;
54919;SDS011;63804;53.120;8.764;2024-02-26T14:04:00;10.25;;;6.25;;
54919;SDS011;63804;53.120;8.764;2024-02-26T14:06:29;10.57;;;6.22;;
54919;SDS011;63804;53.120;8.764;2024-02-26T14:08:58;11.82;;;6.60;;
54919;SDS011;63804;53.120;8.764;2024-02-26T14:11:26;10.52;;;6.05;;
54919;SDS011;63804;53.120;8.764;2024-02-26T14:13:56;11.93;;;6.90;;
54919;SDS011;63804;53.120;8.764;2024-02-26T14:16:23;11.10;;;6.68;;
54919;SDS011;63804;53.120;8.764;2024-02-26T14:18:50;12.82;;;6.72;;
54919;SDS011;63804;53.120;8.764;2024-02-26T14:21:17;13.57;;;7.05;;
54919;SDS011;63804;53.120;8.764;2024-02-26T14:23:45;13.80;;;7.60;;
54919;SDS011;63804;53.120;8.764;2024-02-26T14:26:12;10.27;;;6.25;;
54919;SDS011;63804;53.120;8.764;2024-02-26T14:28:40;11.85;;;6.47;;
54919;SDS011;63804;53.120;8.764;2024-02-26T14:31:07;11.00;;;6.55;;
54919;SDS011;63804;53.120;8.764;2024-02-26T14:33:37;12.05;;;6.70;;
54919;SDS011;63804;53.120;8.764;2024-02-26T14:36:10;11.60;;;7.07;;
54919;SDS011;63804;53.120;8.764;2024-02-26T14:38:38;11.20;;;6.65;;
54919;SDS011;63804;53.120;8.764;2024-02-26T14:41:06;12.13;;;6.68;;
54919;SDS011;63804;53.120;8.764;2024-02-26T14:43:33;10.57;;;6.85;;
54919;SDS011;63804;53.120;8.764;2024-02-26T14:46:02;11.40;;;6.43;;
54919;SDS011;63804;53.120;8.764;2024-02-26T14:48:30;10.88;;;6.28;;
54919;SDS011;63804;53.120;8.764;2024-02-26T14:50:59;10.45;;;5.95;;
54919;SDS011;63804;53.120;8.764;2024-02-26T14:53:27;10.57;;;5.85;;